Time;durP1;ratioP1;P1;durP2;ratioP2;P2;SDS_P1;SDS_P2;PMS_P1;PMS_P2;Temp;Humidity;BMP_temperature;BMP_pressure;BME280_temperature;BME280_humidity;BME280_pressure;Samples;Min_cycle;Max_cycle;Signal;HPM_P1;HPM_P2
2021/03/30 00:02:12;;;;;;;4.70;3.30;;;9.60;99.90;;;;;;5092938;28;20211;-70
2021/03/30 00:04:37;;;;;;;8.37;2.70;;;9.70;99.90;;;;;;5092741;28;20171;-68
2021/03/30 00:07:03;;;;;;;7.83;3.20;;;9.50;99.90;;;;;;5092947;28;20254;-67
2021/03/30 00:09:28;;;;;;;5.90;3.57;;;9.50;99.90;;;;;;5092635;28;20187;-68
2021/03/30 00:11:54;;;;;;;4.07;2.77;;;9.60;99.90;;;;;;5092601;28;20175;-68
2021/03/30 00:14:20;;;;;;;10.73;3.23;;;9.50;99.90;;;;;;5092936;28;20171;-68
2021/03/30 00:16:45;;;;;;;5.13;3.50;;;9.50;99.90;;;;;;5092563;28;20195;-68
2021/03/30 00:19:11;;;;;;;14.73;3.10;;;9.40;99.90;;;;;;5092842;28;20167;-68
2021/03/30 00:21:36;;;;;;;5.60;3.20;;;9.40;99.90;;;;;;5092838;28;20225;-68
2021/03/30 00:24:02;;;;;;;5.13;2.83;;;9.40;99.90;;;;;;5092478;28;20262;-68
2021/03/30 00:26:34;;;;;;;8.50;2.70;;;9.20;99.90;;;;;;5092558;28;20167;-68
2021/03/30 00:28:59;;;;;;;5.30;2.57;;;9.20;99.90;;;;;;5092703;28;20238;-68
2021/03/30 00:31:25;;;;;;;9.93;3.20;;;9.10;99.90;;;;;;5092443;28;20913;-68
2021/03/30 00:33:50;;;;;;;5.03;3.30;;;9.10;99.90;;;;;;5092383;28;20231;-68
2021/03/30 00:36:16;;;;;;;4.67;2.87;;;8.90;99.90;;;;;;5093980;28;20199;-68
2021/03/30 00:38:41;;;;;;;4.80;2.30;;;8.90;99.90;;;;;;5096342;28;20508;-68
2021/03/30 00:41:07;;;;;;;4.97;3.07;;;8.90;99.90;;;;;;5096074;28;20197;-68
2021/03/30 00:43:32;;;;;;;6.67;3.33;;;8.80;99.90;;;;;;5096057;28;20191;-68
2021/03/30 00:45:58;;;;;;;9.27;3.27;;;8.80;99.90;;;;;;5095922;28;20224;-67
2021/03/30 00:48:27;;;;;;;4.53;2.40;;;8.70;99.90;;;;;;5096074;28;20258;-68
2021/03/30 00:50:53;;;;;;;5.23;2.70;;;8.70;99.90;;;;;;5095872;28;20159;-68
2021/03/30 00:53:19;;;;;;;7.93;2.67;;;8.60;99.90;;;;;;5095765;28;20421;-68
2021/03/30 00:55:45;;;;;;;9.33;3.40;;;8.70;99.90;;;;;;5095726;28;20480;-67
2021/03/30 00:58:11;;;;;;;7.93;3.20;;;8.70;99.90;;;;;;5096009;28;20482;-67
2021/03/30 01:00:37;;;;;;;10.53;3.03;;;8.80;99.90;;;;;;5095958;28;20174;-68
2021/03/30 01:03:03;;;;;;;3.50;3.20;;;8.70;99.90;;;;;;5095839;28;20193;-68
2021/03/30 01:05:28;;;;;;;8.00;3.90;;;8.70;99.90;;;;;;5095598;28;20747;-67
2021/03/30 01:08:02;;;;;;;6.63;3.40;;;8.80;99.90;;;;;;5095572;28;20652;-68
2021/03/30 01:10:40;;;;;;;7.40;3.30;;;8.60;99.90;;;;;;5095744;28;20199;-68
2021/03/30 01:13:38;;;;;;;4.33;2.83;;;8.60;99.90;;;;;;5095652;28;20817;-68
2021/03/30 01:16:17;;;;;;;7.87;3.10;;;8.50;99.90;;;;;;5095407;28;20440;-68
2021/03/30 01:19:21;;;;;;;8.10;2.93;;;8.40;99.90;;;;;;5096290;28;20399;-68
2021/03/30 01:22:05;;;;;;;6.03;3.60;;;8.30;99.90;;;;;;5095411;28;20882;-68
2021/03/30 01:24:43;;;;;;;6.80;3.03;;;8.30;99.90;;;;;;5095269;28;20401;-68
2021/03/30 01:27:33;;;;;;;5.27;2.87;;;8.30;99.90;;;;;;5095229;28;20409;-69
2021/03/30 01:30:01;;;;;;;4.60;2.77;;;8.30;99.90;;;;;;5095275;28;20379;-68
2021/03/30 01:32:37;;;;;;;10.10;4.07;;;8.40;99.90;;;;;;5095126;28;20448;-68
2021/03/30 01:35:10;;;;;;;5.23;3.57;;;8.40;99.90;;;;;;5095169;28;20420;-68
2021/03/30 01:37:41;;;;;;;5.38;2.90;;;8.40;99.90;;;;;;5095235;28;20481;-68
2021/03/30 01:40:10;;;;;;;6.20;3.60;;;8.30;99.90;;;;;;5094981;28;20690;-69
2021/03/30 01:42:38;;;;;;;4.67;3.27;;;8.20;99.90;;;;;;5094927;28;20384;-68
2021/03/30 01:45:04;;;;;;;7.63;3.15;;;8.20;99.90;;;;;;5094795;28;20971;-68
2021/03/30 01:47:34;;;;;;;5.33;3.27;;;8.30;99.90;;;;;;5094442;28;20589;-68
2021/03/30 01:50:01;;;;;;;6.77;3.00;;;8.00;99.90;;;;;;5094916;28;20452;-69
2021/03/30 01:52:26;;;;;;;6.43;3.40;;;7.80;99.90;;;;;;5094585;28;20458;-68
2021/03/30 01:54:53;;;;;;;7.60;3.53;;;7.80;99.90;;;;;;5094572;28;20798;-69
2021/03/30 01:57:29;;;;;;;5.00;3.10;;;8.10;99.90;;;;;;5094849;28;20540;-68
2021/03/30 01:59:56;;;;;;;4.37;3.30;;;8.20;99.90;;;;;;5094755;28;20401;-68
2021/03/30 02:02:21;;;;;;;5.57;3.70;;;8.00;99.90;;;;;;5094420;28;20464;-68
2021/03/30 02:04:49;;;;;;;6.27;2.70;;;8.10;99.90;;;;;;5094373;28;20405;-68
2021/03/30 02:07:16;;;;;;;5.17;3.37;;;7.80;99.90;;;;;;5094376;28;20289;-68
2021/03/30 02:09:45;;;;;;;8.33;3.37;;;7.60;99.90;;;;;;5094632;28;20431;-68
2021/03/30 02:12:13;;;;;;;15.43;3.90;;;7.60;99.90;;;;;;5094289;28;20437;-68
2021/03/30 02:14:40;;;;;;;6.40;3.20;;;7.50;99.90;;;;;;5094380;28;20496;-68
2021/03/30 02:17:23;;;;;;;9.68;3.17;;;7.60;99.90;;;;;;5094151;28;20438;-68
2021/03/30 02:20:15;;;;;;;5.30;2.80;;;7.90;99.90;;;;;;5094503;28;20170;-68
2021/03/30 02:23:16;;;;;;;5.00;3.43;;;8.00;99.90;;;;;;5089952;28;20434;-68
2021/03/30 02:25:47;;;;;;;9.63;4.05;;;7.80;99.90;;;;;;5094298;28;20727;-69
2021/03/30 02:28:15;;;;;;;6.47;3.60;;;7.90;99.90;;;;;;5094593;28;20571;-69
2021/03/30 02:30:42;;;;;;;4.57;2.90;;;7.70;99.90;;;;;;5094504;28;20412;-69
2021/03/30 02:33:11;;;;;;;4.97;3.10;;;7.60;99.90;;;;;;5092549;28;20460;-69
2021/03/30 02:35:37;;;;;;;11.43;3.90;;;7.70;99.90;;;;;;5094019;28;20449;-69
2021/03/30 02:38:05;;;;;;;8.03;3.90;;;7.70;99.90;;;;;;5093815;28;20405;-69
2021/03/30 02:40:31;;;;;;;8.30;4.80;;;7.60;99.90;;;;;;5093737;28;20398;-69
2021/03/30 02:42:58;;;;;;;6.73;3.97;;;7.50;99.90;;;;;;5093651;28;20822;-69
2021/03/30 02:45:27;;;;;;;5.37;4.00;;;7.40;99.90;;;;;;5093669;28;20206;-69
2021/03/30 02:47:58;;;;;;;9.15;3.25;;;7.50;99.90;;;;;;5093589;28;20755;-68
2021/03/30 02:50:26;;;;;;;8.82;3.72;;;7.50;99.90;;;;;;5093576;28;20169;-68
2021/03/30 02:52:52;;;;;;;9.23;3.10;;;7.50;99.90;;;;;;5093483;28;20204;-69
2021/03/30 02:55:18;;;;;;;7.70;3.43;;;7.60;99.90;;;;;;5093446;28;20560;-69
2021/03/30 02:57:44;;;;;;;7.63;4.23;;;7.70;99.90;;;;;;5093423;28;20425;-68
2021/03/30 03:00:12;;;;;;;5.57;4.30;;;7.70;99.90;;;;;;5092818;28;20440;-67
2021/03/30 03:02:38;;;;;;;5.95;3.83;;;7.50;99.90;;;;;;5093213;28;20222;-67
2021/03/30 03:05:06;;;;;;;5.10;3.30;;;7.40;99.90;;;;;;5093355;28;20175;-67
2021/03/30 03:07:33;;;;;;;7.97;3.85;;;7.40;99.90;;;;;;5093117;28;20242;-67
2021/03/30 03:10:01;;;;;;;7.68;4.22;;;7.50;99.90;;;;;;5093327;28;20607;-67
2021/03/30 03:12:29;;;;;;;9.80;4.60;;;7.30;99.90;;;;;;5093485;28;20676;-67
2021/03/30 03:14:57;;;;;;;4.72;4.00;;;7.20;99.90;;;;;;5093410;28;20254;-67
2021/03/30 03:17:23;;;;;;;7.43;4.53;;;7.30;99.90;;;;;;5093151;28;20168;-67
2021/03/30 03:19:49;;;;;;;5.20;3.60;;;7.20;99.90;;;;;;5093420;28;20416;-67
2021/03/30 03:22:15;;;;;;;9.57;3.80;;;7.20;99.90;;;;;;5093377;28;20278;-67
2021/03/30 03:24:41;;;;;;;9.23;4.13;;;7.40;99.90;;;;;;5093347;28;20545;-67
2021/03/30 03:27:07;;;;;;;8.40;4.17;;;7.30;99.90;;;;;;5093018;28;20209;-67
2021/03/30 03:29:32;;;;;;;8.40;4.13;;;7.20;99.90;;;;;;5092950;28;20191;-67
2021/03/30 03:31:58;;;;;;;7.50;4.07;;;7.10;99.90;;;;;;5093207;28;20409;-67
2021/03/30 03:34:24;;;;;;;9.87;4.17;;;6.90;99.90;;;;;;5092979;28;20482;-67
2021/03/30 03:36:50;;;;;;;4.80;3.33;;;7.00;99.90;;;;;;5091501;28;20699;-67
2021/03/30 03:39:19;;;;;;;5.97;4.43;;;7.20;99.90;;;;;;5093048;28;20185;-68
2021/03/30 03:41:46;;;;;;;6.45;4.15;;;7.10;99.90;;;;;;5092657;28;20220;-67
2021/03/30 03:44:13;;;;;;;6.85;4.32;;;7.10;99.90;;;;;;5092747;28;20542;-67
2021/03/30 03:46:40;;;;;;;8.38;4.90;;;7.00;99.90;;;;;;5092790;28;20166;-68
2021/03/30 03:49:06;;;;;;;5.50;3.40;;;7.00;99.90;;;;;;5093133;28;20174;-67
2021/03/30 03:51:48;;;;;;;6.95;4.05;;;6.90;99.90;;;;;;5092697;28;20161;-67
2021/03/30 03:54:17;;;;;;;11.35;6.00;;;6.80;99.90;;;;;;5092849;28;20183;-67
2021/03/30 03:56:46;;;;;;;6.70;3.83;;;6.80;99.90;;;;;;5092567;28;20194;-68
2021/03/30 03:59:33;;;;;;;4.82;3.30;;;7.00;99.90;;;;;;5092948;28;20172;-67
2021/03/30 04:02:13;;;;;;;7.20;3.55;;;6.90;99.90;;;;;;5092459;28;20697;-67
2021/03/30 04:05:10;;;;;;;8.90;3.80;;;6.80;99.90;;;;;;5091364;28;20159;-68
2021/03/30 04:08:04;;;;;;;6.53;3.97;;;6.60;99.90;;;;;;5092686;28;20182;-67
2021/03/30 04:10:31;;;;;;;7.80;3.80;;;6.60;99.90;;;;;;5082180;28;20194;-67
2021/03/30 04:12:57;;;;;;;8.90;3.60;;;6.60;99.90;;;;;;5096524;28;20191;-67
2021/03/30 04:15:26;;;;;;;5.25;3.28;;;6.60;99.90;;;;;;5096386;28;20345;-68
2021/03/30 04:17:52;;;;;;;5.72;4.00;;;6.70;99.90;;;;;;5096438;28;20202;-67
2021/03/30 04:20:19;;;;;;;6.18;4.13;;;6.50;99.90;;;;;;5096460;28;20640;-67
2021/03/30 04:22:59;;;;;;;8.85;4.43;;;6.40;99.90;;;;;;5096607;28;20290;-67
2021/03/30 04:25:25;;;;;;;5.82;3.88;;;6.40;99.90;;;;;;5096315;28;20152;-68
2021/03/30 04:27:52;;;;;;;6.18;4.20;;;6.30;99.90;;;;;;5096374;28;20182;-68
2021/03/30 04:30:19;;;;;;;6.80;3.75;;;6.30;99.90;;;;;;5096225;28;20652;-67
2021/03/30 04:32:44;;;;;;;6.68;3.75;;;6.40;99.90;;;;;;5096396;28;20206;-67
2021/03/30 04:35:11;;;;;;;11.13;4.70;;;6.50;99.90;;;;;;5096178;28;20182;-68
2021/03/30 04:37:37;;;;;;;10.45;4.90;;;6.60;99.90;;;;;;5096059;28;20167;-68
2021/03/30 04:40:05;;;;;;;7.20;4.68;;;7.00;99.90;;;;;;5096051;28;20164;-68
2021/03/30 04:42:30;;;;;;;6.15;3.80;;;6.90;99.90;;;;;;5096085;28;20191;-67
2021/03/30 04:44:56;;;;;;;7.17;4.20;;;6.70;99.90;;;;;;5096243;28;20182;-68
2021/03/30 04:47:23;;;;;;;7.10;3.57;;;6.40;99.90;;;;;;5096320;28;20241;-67
2021/03/30 04:49:49;;;;;;;6.97;4.05;;;6.20;99.90;;;;;;5095886;28;20164;-68
2021/03/30 04:52:15;;;;;;;7.17;4.23;;;6.20;99.90;;;;;;5095765;28;20193;-68
2021/03/30 04:54:40;;;;;;;16.17;6.67;;;6.20;99.90;;;;;;5095782;28;20176;-67
2021/03/30 04:57:06;;;;;;;6.07;4.20;;;6.10;99.90;;;;;;5095628;28;20222;-67
2021/03/30 04:59:32;;;;;;;6.83;4.27;;;6.10;99.90;;;;;;5095817;28;20587;-68
2021/03/30 05:01:57;;;;;;;15.43;4.90;;;6.50;99.90;;;;;;5095747;28;20410;-68
2021/03/30 05:04:23;;;;;;;8.67;4.30;;;6.70;99.90;;;;;;5095707;28;20159;-68
2021/03/30 05:06:48;;;;;;;8.67;4.57;;;6.80;99.90;;;;;;5095512;28;20246;-68
2021/03/30 05:09:14;;;;;;;5.10;4.27;;;6.80;99.90;;;;;;5095197;28;20198;-67
2021/03/30 05:11:39;;;;;;;13.60;4.07;;;6.70;99.90;;;;;;5095288;28;20164;-67
2021/03/30 05:14:05;;;;;;;4.53;3.57;;;6.50;99.90;;;;;;5095110;28;20187;-67
2021/03/30 05:16:30;;;;;;;6.73;3.93;;;6.50;99.90;;;;;;5095430;28;20199;-67
2021/03/30 05:18:56;;;;;;;10.30;5.00;;;6.40;99.90;;;;;;5095093;28;20164;-67
2021/03/30 05:21:22;;;;;;;7.20;4.10;;;6.70;99.90;;;;;;5095341;28;20172;-68
2021/03/30 05:23:48;;;;;;;5.40;4.00;;;6.70;99.90;;;;;;5094501;28;20271;-68
2021/03/30 05:26:13;;;;;;;7.37;4.90;;;6.60;99.90;;;;;;5095053;28;20793;-68
2021/03/30 05:28:39;;;;;;;4.60;3.47;;;6.50;99.90;;;;;;5095475;28;20190;-68
2021/03/30 05:31:04;;;;;;;7.00;4.60;;;6.40;99.90;;;;;;5095239;28;20172;-68
2021/03/30 05:33:30;;;;;;;7.43;4.27;;;6.40;99.90;;;;;;5094907;28;20191;-68
2021/03/30 05:35:55;;;;;;;7.33;3.63;;;6.40;99.90;;;;;;5094653;28;20597;-68
2021/03/30 05:38:22;;;;;;;11.37;5.30;;;6.30;99.90;;;;;;5094618;28;20176;-68
2021/03/30 05:40:48;;;;;;;7.40;3.97;;;6.20;99.90;;;;;;5095092;28;20180;-68
2021/03/30 05:43:13;;;;;;;8.57;4.65;;;6.10;99.90;;;;;;5094592;28;20265;-68
2021/03/30 05:45:39;;;;;;;9.37;4.43;;;6.10;99.90;;;;;;5094873;28;20168;-68
2021/03/30 05:48:10;;;;;;;6.90;4.10;;;6.10;99.90;;;;;;5094594;28;20286;-69
2021/03/30 05:50:35;;;;;;;6.07;3.80;;;6.10;99.90;;;;;;5094744;28;20167;-69
2021/03/30 05:53:10;;;;;;;9.10;4.23;;;6.20;99.90;;;;;;5094554;28;20198;-69
2021/03/30 05:55:38;;;;;;;12.35;5.00;;;6.30;99.90;;;;;;5094390;28;20263;-69
2021/03/30 05:58:06;;;;;;;12.40;4.43;;;6.20;99.90;;;;;;5094317;28;20709;-67
2021/03/30 06:00:35;;;;;;;9.50;3.90;;;6.60;99.90;;;;;;5094106;28;20168;-68
2021/03/30 06:03:23;;;;;;;7.15;4.05;;;6.60;99.90;;;;;;5093964;28;20249;-68
2021/03/30 06:05:53;;;;;;;17.10;4.72;;;6.80;99.90;;;;;;5093429;28;20279;-69
2021/03/30 06:08:21;;;;;;;10.30;4.82;;;6.70;99.90;;;;;;5094103;28;20184;-68
2021/03/30 06:10:48;;;;;;;9.32;4.95;;;6.70;99.90;;;;;;5094669;28;20250;-69
2021/03/30 06:13:13;;;;;;;8.93;4.78;;;6.60;99.90;;;;;;5094078;28;20191;-69
2021/03/30 06:15:39;;;;;;;6.10;4.77;;;6.70;99.90;;;;;;5093874;28;20195;-68
2021/03/30 06:18:21;;;;;;;7.80;4.93;;;6.80;99.90;;;;;;5093759;28;20232;-68
2021/03/30 06:20:46;;;;;;;9.20;5.43;;;6.90;99.90;;;;;;5094065;28;20164;-68
2021/03/30 06:23:12;;;;;;;11.90;5.50;;;7.10;99.90;;;;;;5094122;28;20555;-69
2021/03/30 06:25:43;;;;;;;18.87;5.07;;;7.60;99.90;;;;;;5094082;28;20164;-69
2021/03/30 06:28:09;;;;;;;8.90;5.18;;;7.70;99.90;;;;;;5093594;28;20233;-68
2021/03/30 06:30:34;;;;;;;12.13;5.65;;;7.80;99.90;;;;;;5093765;28;20200;-68
2021/03/30 06:33:00;;;;;;;11.90;5.43;;;7.80;99.90;;;;;;5093700;28;20221;-68
2021/03/30 06:35:30;;;;;;;11.80;5.97;;;7.60;99.90;;;;;;5093401;28;20195;-69
2021/03/30 06:37:55;;;;;;;8.77;5.55;;;7.80;99.90;;;;;;5093648;28;20236;-68
2021/03/30 06:40:35;;;;;;;10.87;5.87;;;7.90;99.90;;;;;;5093580;28;20249;-68
2021/03/30 06:44:24;;;;;;;16.42;5.82;;;7.80;99.90;;;;;;5093287;28;20240;-68
2021/03/30 06:46:04;;;;;;;12.80;4.80;;;7.80;99.90;;;;;;5092050;28;20175;-68
2021/03/30 06:48:30;;;;;;;11.20;5.35;;;7.80;99.90;;;;;;5093333;28;20777;-68
2021/03/30 06:50:55;;;;;;;13.30;5.30;;;8.20;99.90;;;;;;5093354;28;20170;-69
2021/03/30 06:53:21;;;;;;;16.87;6.30;;;8.20;99.90;;;;;;5093648;28;20808;-69
2021/03/30 06:55:52;;;;;;;11.37;6.50;;;8.30;99.90;;;;;;5094479;28;20202;-69
2021/03/30 06:58:18;;;;;;;13.40;5.47;;;8.40;99.90;;;;;;5094021;28;20195;-69
2021/03/30 07:00:45;;;;;;;11.83;6.20;;;8.60;99.90;;;;;;5093178;28;20400;-69
2021/03/30 07:03:18;;;;;;;7.97;5.50;;;8.90;99.90;;;;;;5093415;28;20424;-69
2021/03/30 07:05:48;;;;;;;9.90;6.40;;;8.90;99.90;;;;;;5093227;28;20404;-69
2021/03/30 07:08:15;;;;;;;11.05;5.13;;;8.90;99.90;;;;;;5093130;28;20832;-69
2021/03/30 07:10:43;;;;;;;8.43;5.30;;;9.10;99.90;;;;;;5093543;28;20203;-68
2021/03/30 07:13:10;;;;;;;12.10;6.50;;;9.30;99.90;;;;;;5093233;28;20428;-69
2021/03/30 07:15:36;;;;;;;13.17;6.33;;;9.50;99.90;;;;;;5092869;28;20452;-69
2021/03/30 07:18:30;;;;;;;9.80;5.47;;;9.90;99.90;;;;;;5093169;28;20886;-69
2021/03/30 07:21:02;;;;;;;10.43;6.87;;;10.00;99.90;;;;;;5093039;28;20432;-68
2021/03/30 07:23:33;;;;;;;11.10;5.80;;;10.20;99.90;;;;;;5093218;28;20421;-68
2021/03/30 07:26:12;;;;;;;13.10;6.03;;;10.30;99.90;;;;;;5091556;28;20740;-68
2021/03/30 07:28:48;;;;;;;9.57;6.20;;;10.50;99.90;;;;;;5093105;28;20512;-69
2021/03/30 07:31:25;;;;;;;22.87;6.87;;;10.70;99.90;;;;;;5092725;28;20420;-69
2021/03/30 07:34:08;;;;;;;11.37;5.47;;;10.90;99.90;;;;;;5092850;28;20425;-69
2021/03/30 07:36:45;;;;;;;11.33;5.53;;;11.10;99.90;;;;;;5093424;28;20524;-68
2021/03/30 07:39:10;;;;;;;11.50;4.73;;;11.40;99.90;;;;;;5093289;28;20378;-69
2021/03/30 07:41:39;;;;;;;10.13;5.17;;;11.50;99.90;;;;;;5093610;28;20416;-68
2021/03/30 07:44:06;;;;;;;10.20;6.10;;;11.70;99.90;;;;;;5093941;28;20266;-68
2021/03/30 07:46:32;;;;;;;13.97;6.00;;;11.90;99.90;;;;;;5094881;28;20401;-68
2021/03/30 07:48:58;;;;;;;10.43;5.87;;;12.10;99.90;;;;;;5097005;28;20739;-69
2021/03/30 07:51:33;;;;;;;9.43;5.70;;;12.40;99.90;;;;;;5096585;28;20711;-69
2021/03/30 07:54:13;;;;;;;13.83;5.23;;;12.70;99.90;;;;;;5095335;28;20493;-69
2021/03/30 07:56:38;;;;;;;11.53;5.20;;;13.00;99.90;;;;;;5096672;28;20436;-69
2021/03/30 07:59:04;;;;;;;12.50;5.83;;;13.10;99.90;;;;;;5096241;28;20873;-67
2021/03/30 08:01:31;;;;;;;11.40;6.17;;;13.20;99.90;;;;;;5097057;28;20168;-67
2021/03/30 08:04:00;;;;;;;10.50;5.60;;;13.30;99.90;;;;;;5096424;28;20556;-67
2021/03/30 08:06:27;;;;;;;6.90;5.20;;;13.40;99.90;;;;;;5095081;28;20422;-68
2021/03/30 08:09:07;;;;;;;8.63;5.37;;;13.50;99.90;;;;;;5096478;28;20427;-67
2021/03/30 08:11:39;;;;;;;10.50;5.33;;;13.70;99.90;;;;;;5096464;28;20407;-67
2021/03/30 08:14:26;;;;;;;5.40;4.50;;;13.80;99.90;;;;;;5096666;28;20798;-67
2021/03/30 08:16:54;;;;;;;13.40;5.60;;;14.00;99.90;;;;;;5083132;28;20450;-67
2021/03/30 08:19:20;;;;;;;12.30;5.60;;;14.20;99.90;;;;;;5096481;28;20401;-67
2021/03/30 08:22:15;;;;;;;15.10;6.70;;;14.40;99.90;;;;;;5096341;28;20431;-67
2021/03/30 08:24:44;;;;;;;12.63;6.00;;;14.50;99.90;;;;;;5078742;28;20422;-67
2021/03/30 08:27:31;;;;;;;10.23;5.80;;;14.80;99.90;;;;;;5095999;28;20407;-67
2021/03/30 08:30:00;;;;;;;17.30;6.07;;;15.00;99.90;;;;;;5096045;28;20487;-67
2021/03/30 08:32:28;;;;;;;15.63;7.57;;;15.10;99.90;;;;;;5095827;28;20415;-68
2021/03/30 08:34:54;;;;;;;12.07;5.70;;;15.30;99.90;;;;;;5096067;28;20495;-66
2021/03/30 08:37:22;;;;;;;13.60;5.50;;;15.50;99.90;;;;;;5095660;28;20465;-67
2021/03/30 08:39:48;;;;;;;8.37;4.80;;;15.70;99.90;;;;;;5096073;28;20524;-67
2021/03/30 08:42:18;;;;;;;9.30;5.60;;;15.90;99.90;;;;;;5095996;28;20429;-67
2021/03/30 08:45:06;;;;;;;7.27;4.43;;;16.10;99.90;;;;;;5095919;28;20176;-67
2021/03/30 08:47:36;;;;;;;9.60;4.47;;;16.30;99.90;;;;;;5096021;28;20738;-67
2021/03/30 08:50:24;;;;;;;11.40;4.80;;;16.40;99.90;;;;;;5096956;28;20743;-67
2021/03/30 08:52:52;;;;;;;9.30;4.47;;;16.50;99.90;;;;;;5095600;28;20772;-67
2021/03/30 08:55:29;;;;;;;10.33;4.30;;;16.70;99.90;;;;;;5095983;28;20476;-67
2021/03/30 08:57:57;;;;;;;13.33;5.90;;;16.90;99.90;;;;;;5094411;28;20393;-68
2021/03/30 09:00:23;;;;;;;7.60;4.67;;;17.10;99.90;;;;;;5095630;28;20409;-67
2021/03/30 09:03:10;;;;;;;10.47;5.60;;;17.30;99.90;;;;;;5095572;28;20454;-67
2021/03/30 09:05:37;;;;;;;8.47;4.30;;;17.40;99.90;;;;;;5095006;28;20483;-67
2021/03/30 09:08:03;;;;;;;8.33;5.40;;;17.50;99.90;;;;;;5095350;28;20432;-67
2021/03/30 09:10:29;;;;;;;15.00;7.00;;;17.70;99.90;;;;;;5095167;28;20417;-67
2021/03/30 09:13:15;;;;;;;11.20;6.57;;;17.80;99.90;;;;;;5095084;28;20431;-67
2021/03/30 09:15:42;;;;;;;11.27;6.87;;;18.00;99.90;;;;;;5095234;28;20205;-67
2021/03/30 09:18:09;;;;;;;17.27;6.80;;;18.10;99.90;;;;;;5095305;28;20418;-67
2021/03/30 09:20:37;;;;;;;13.30;6.57;;;18.30;99.90;;;;;;5094896;28;20426;-67
2021/03/30 09:23:24;;;;;;;14.03;6.67;;;18.40;99.90;;;;;;5094703;28;20428;-67
2021/03/30 09:25:56;;;;;;;12.90;6.90;;;18.40;99.90;;;;;;5095648;28;20818;-67
2021/03/30 09:28:21;;;;;;;11.30;6.60;;;18.50;99.90;;;;;;5094917;28;20404;-67
2021/03/30 09:30:47;;;;;;;14.70;7.90;;;18.70;99.90;;;;;;5095271;28;20410;-65
2021/03/30 09:33:14;;;;;;;16.03;8.40;;;18.90;99.90;;;;;;5095159;28;20194;-66
2021/03/30 09:35:40;;;;;;;15.70;6.70;;;19.10;99.90;;;;;;5093322;28;20643;-68
2021/03/30 09:38:06;;;;;;;12.23;7.37;;;19.20;99.90;;;;;;5094798;28;20522;-66
2021/03/30 09:40:40;;;;;;;11.70;6.00;;;19.30;99.90;;;;;;5095179;28;20173;-66
2021/03/30 09:43:14;;;;;;;16.00;7.70;;;19.50;99.90;;;;;;5095050;28;20187;-66
2021/03/30 09:45:40;;;;;;;12.13;7.77;;;19.70;99.90;;;;;;5094638;28;20389;-66
2021/03/30 09:48:09;;;;;;;18.97;9.50;;;19.70;99.90;;;;;;5094870;28;20403;-66
2021/03/30 09:50:41;;;;;;;17.10;9.07;;;19.90;99.90;;;;;;5095074;28;20402;-67
2021/03/30 09:53:08;;;;;;;16.70;9.90;;;20.10;99.90;;;;;;5094519;28;20481;-67
2021/03/30 09:55:36;;;;;;;15.70;9.17;;;20.10;99.90;;;;;;5094185;28;20448;-67
2021/03/30 09:58:11;;;;;;;19.37;12.17;;;20.20;99.90;;;;;;5094660;28;20409;-67
2021/03/30 10:00:52;;;;;;;16.63;8.97;;;20.40;99.90;;;;;;5094615;28;20389;-67
2021/03/30 10:03:18;;;;;;;17.23;11.33;;;20.40;99.90;;;;;;5094286;28;20422;-67
2021/03/30 10:05:45;;;;;;;20.00;12.10;;;20.70;99.90;;;;;;5094177;28;20413;-66
2021/03/30 10:08:22;;;;;;;15.93;10.00;;;20.80;99.90;;;;;;5093615;28;20791;-67
2021/03/30 10:10:53;;;;;;;16.97;9.93;;;21.00;99.90;;;;;;5094340;28;20482;-67
2021/03/30 10:13:33;;;;;;;18.50;11.83;;;21.10;99.90;;;;;;5094436;28;20428;-67
2021/03/30 10:16:01;;;;;;;24.70;13.37;;;21.20;99.90;;;;;;5092539;28;20455;-67
2021/03/30 10:18:28;;;;;;;19.50;11.30;;;21.30;99.90;;;;;;5094214;28;20892;-67
2021/03/30 10:20:56;;;;;;;21.70;12.27;;;21.30;99.90;;;;;;5094297;28;20416;-67
2021/03/30 10:23:25;;;;;;;16.97;10.80;;;21.30;99.90;;;;;;5094212;28;20489;-67
2021/03/30 10:25:51;;;;;;;20.30;13.13;;;21.70;99.90;;;;;;5093737;28;20417;-67
2021/03/30 10:28:31;;;;;;;16.47;10.33;;;21.80;99.90;;;;;;5092413;28;20410;-68
2021/03/30 10:31:02;;;;;;;17.60;9.93;;;22.00;99.90;;;;;;5093328;28;20412;-67
2021/03/30 10:33:40;;;;;;;19.60;10.93;;;22.20;99.90;;;;;;5093738;28;20433;-67
2021/03/30 10:36:13;;;;;;;13.90;9.60;;;22.50;99.90;;;;;;5093985;28;20468;-67
2021/03/30 10:38:40;;;;;;;15.33;9.60;;;22.40;99.90;;;;;;5093777;28;20403;-67
2021/03/30 10:41:14;;;;;;;17.03;9.07;;;22.50;99.90;;;;;;5094323;28;20491;-67
2021/03/30 10:43:40;;;;;;;15.77;8.63;;;22.50;99.90;;;;;;5093790;28;21055;-67
2021/03/30 10:46:21;;;;;;;16.30;10.50;;;22.40;99.90;;;;;;5093408;28;20442;-67
2021/03/30 10:49:04;;;;;;;13.23;8.03;;;22.90;99.90;;;;;;5093333;28;20179;-67
2021/03/30 10:51:31;;;;;;;14.77;8.80;;;23.10;99.90;;;;;;5093742;28;20394;-67
2021/03/30 10:53:59;;;;;;;13.83;8.40;;;23.10;99.90;;;;;;5093649;28;20433;-67
2021/03/30 10:56:24;;;;;;;12.13;8.47;;;23.30;99.90;;;;;;5093489;28;20462;-67
2021/03/30 10:58:50;;;;;;;13.10;7.87;;;23.40;99.90;;;;;;5093180;28;20412;-67
2021/03/30 11:01:15;;;;;;;9.90;6.93;;;23.70;99.90;;;;;;5093025;28;20168;-67
2021/03/30 11:03:41;;;;;;;11.27;6.70;;;23.60;99.90;;;;;;5092626;28;20183;-67
2021/03/30 11:06:07;;;;;;;15.53;7.60;;;23.80;99.90;;;;;;5093251;28;20260;-67
2021/03/30 11:08:32;;;;;;;9.90;5.80;;;23.80;99.90;;;;;;5092714;28;20659;-67
2021/03/30 11:10:58;;;;;;;11.87;7.17;;;23.40;99.90;;;;;;5092957;28;20257;-67
2021/03/30 11:13:23;;;;;;;11.43;6.20;;;23.60;99.90;;;;;;5092424;28;20209;-67
2021/03/30 11:15:50;;;;;;;10.10;6.37;;;23.70;99.90;;;;;;5092597;28;20263;-67
2021/03/30 11:18:16;;;;;;;7.90;5.30;;;24.00;99.90;;;;;;5092743;28;20217;-67
2021/03/30 11:20:42;;;;;;;8.87;5.33;;;23.80;99.90;;;;;;5092105;28;20405;-67
2021/03/30 11:23:08;;;;;;;11.50;6.07;;;23.60;99.90;;;;;;5093120;28;20595;-67
2021/03/30 11:25:34;;;;;;;9.70;6.03;;;24.10;99.90;;;;;;5092732;28;20535;-67
2021/03/30 11:28:05;;;;;;;10.47;5.80;;;24.10;99.90;;;;;;5093416;28;20168;-67
2021/03/30 11:30:41;;;;;;;11.27;5.33;;;24.40;99.90;;;;;;5092842;28;20463;-68
2021/03/30 11:33:19;;;;;;;8.23;4.57;;;24.70;99.90;;;;;;5092739;28;20421;-67
2021/03/30 11:36:05;;;;;;;6.40;4.20;;;24.50;99.90;;;;;;5092943;28;20436;-68
2021/03/30 11:38:31;;;;;;;5.30;3.97;;;24.70;99.90;;;;;;5092740;28;20406;-68
2021/03/30 11:40:56;;;;;;;6.77;4.17;;;24.60;99.90;;;;;;5092588;28;20452;-68
2021/03/30 11:43:22;;;;;;;11.63;3.50;;;24.70;99.90;;;;;;5092035;28;20179;-67
2021/03/30 11:45:47;;;;;;;7.37;3.43;;;25.10;99.90;;;;;;5092658;28;20529;-67
2021/03/30 11:48:13;;;;;;;8.07;4.70;;;25.20;99.90;;;;;;5092457;28;20170;-66
2021/03/30 11:50:38;;;;;;;11.97;5.80;;;25.50;99.90;;;;;;5092733;28;20224;-66
2021/03/30 11:53:04;;;;;;;6.30;4.70;;;25.70;99.90;;;;;;5092624;28;20187;-66
2021/03/30 11:55:30;;;;;;;7.70;4.20;;;25.50;99.90;;;;;;5092453;28;20614;-66
2021/03/30 11:57:55;;;;;;;5.23;4.00;;;25.60;99.90;;;;;;5092600;28;20163;-67
2021/03/30 12:00:21;;;;;;;6.53;3.77;;;26.10;99.90;;;;;;5091234;28;20250;-67
2021/03/30 12:02:49;;;;;;;7.77;5.57;;;25.90;99.90;;;;;;5092375;28;20668;-67
2021/03/30 12:05:15;;;;;;;8.67;4.00;;;25.70;99.90;;;;;;5092338;28;20406;-67
2021/03/30 12:07:40;;;;;;;7.50;4.80;;;26.00;99.90;;;;;;5092698;28;20536;-67
2021/03/30 12:10:07;;;;;;;7.80;4.13;;;26.60;99.90;;;;;;5092929;28;20406;-68
2021/03/30 12:12:33;;;;;;;6.20;3.87;;;26.00;99.90;;;;;;5092907;28;20203;-67
2021/03/30 12:14:59;;;;;;;6.37;4.00;;;25.80;99.90;;;;;;5092598;28;20451;-67
2021/03/30 12:17:24;;;;;;;11.33;4.57;;;26.40;99.90;;;;;;5092375;28;20440;-67
2021/03/30 12:19:51;;;;;;;10.17;3.67;;;26.80;99.90;;;;;;5092600;28;20596;-67
2021/03/30 12:22:16;;;;;;;9.63;3.60;;;27.00;99.90;;;;;;5092403;28;20266;-67
2021/03/30 12:24:42;;;;;;;7.73;3.90;;;27.20;99.90;;;;;;5092250;28;20494;-67
2021/03/30 12:27:11;;;;;;;6.47;4.07;;;27.30;99.90;;;;;;5092078;28;20172;-67
2021/03/30 12:29:40;;;;;;;4.80;3.60;;;27.60;99.90;;;;;;5092164;28;20278;-67
2021/03/30 12:32:10;;;;;;;7.17;3.70;;;27.80;99.90;;;;;;5093470;28;20428;-67
2021/03/30 12:34:36;;;;;;;8.40;3.50;;;27.90;99.90;;;;;;5096124;28;20428;-67
2021/03/30 12:37:03;;;;;;;3.87;2.67;;;27.10;99.90;;;;;;5095623;28;20455;-67
2021/03/30 12:39:29;;;;;;;8.63;3.03;;;27.80;99.90;;;;;;5096202;28;20296;-67
2021/03/30 12:41:55;;;;;;;6.27;2.67;;;27.90;99.90;;;;;;5095832;28;20400;-67
2021/03/30 12:44:21;;;;;;;4.03;2.90;;;27.50;99.90;;;;;;5095964;28;20813;-67
2021/03/30 12:46:46;;;;;;;4.60;2.60;;;27.60;99.90;;;;;;5095803;28;20589;-67
2021/03/30 12:49:12;;;;;;;3.60;2.33;;;27.30;99.90;;;;;;5095847;28;20602;-67
2021/03/30 12:51:38;;;;;;;4.43;2.53;;;28.00;99.90;;;;;;5095724;28;20168;-67
2021/03/30 12:54:03;;;;;;;5.07;2.33;;;27.70;99.90;;;;;;5095469;28;20192;-67
2021/03/30 12:56:29;;;;;;;4.93;2.10;;;28.00;99.90;;;;;;5095804;28;20187;-67
2021/03/30 12:58:54;;;;;;;3.40;1.80;;;28.70;99.90;;;;;;5095586;28;20164;-67
2021/03/30 13:01:20;;;;;;;3.57;2.20;;;28.40;99.90;;;;;;5094912;28;20258;-67